Time;durP1;ratioP1;P1;durP2;ratioP2;P2;SDS_P1;SDS_P2;PMS_P1;PMS_P2;Temp;Humidity;BMP_temperature;BMP_pressure;BME280_temperature;BME280_humidity;BME280_pressure;Samples;Min_cycle;Max_cycle;Signal;HPM_P1;HPM_P2
2023/10/15 17:36:57;;;;;;;15.27;4.40;;;;;;;;;;5010200;23;20387;-69
2023/10/15 17:40:38;;;;;;;11.52;4.45;;;;;;;;;;4924531;29;20112;-71
2023/10/15 17:43:24;;;;;;;15.60;4.82;;;;;;;;;;4923992;29;20058;-71
2023/10/15 17:45:50;;;;;;;14.68;4.75;;;;;;;;;;4923282;29;20047;-70
2023/10/15 17:48:16;;;;;;;15.70;5.22;;;;;;;;;;4927229;29;20471;-72
2023/10/15 17:50:42;;;;;;;12.50;5.45;;;;;;;;;;4903439;29;20047;-70
2023/10/15 17:53:08;;;;;;;10.30;4.65;;;;;;;;;;4921725;29;20464;-70
2023/10/15 17:55:34;;;;;;;11.48;4.72;;;;;;;;;;4920916;29;20063;-71
2023/10/15 17:58:00;;;;;;;16.48;5.40;;;;;;;;;;4926254;29;20044;-71
2023/10/15 18:01:05;;;;;;;13.68;5.15;;;;;;;;;;4921365;29;20050;-70
2023/10/15 18:04:26;;;;;;;15.20;4.97;;;;;;;;;;4916967;29;20051;-70
2023/10/15 18:06:53;;;;;;;9.75;4.60;;;;;;;;;;4902775;29;20492;-68
2023/10/15 18:09:20;;;;;;;14.27;5.00;;;;;;;;;;4920943;29;20082;-66
2023/10/15 18:11:46;;;;;;;11.68;4.75;;;;;;;;;;4918473;29;20068;-65
2023/10/15 18:14:13;;;;;;;16.08;4.85;;;;;;;;;;4905841;29;20055;-65
2023/10/15 18:16:39;;;;;;;11.25;5.07;;;;;;;;;;4912415;29;20035;-64
2023/10/15 18:19:06;;;;;;;11.65;5.72;;;;;;;;;;4905751;29;20478;-65
2023/10/15 18:21:32;;;;;;;13.45;4.60;;;;;;;;;;4919901;29;20055;-69
2023/10/15 18:23:59;;;;;;;14.55;5.22;;;;;;;;;;4918378;29;20056;-67
2023/10/15 18:26:28;;;;;;;11.73;4.60;;;;;;;;;;4921879;29;20225;-66
2023/10/15 18:28:54;;;;;;;14.00;5.13;;;;;;;;;;4918430;29;20523;-66
2023/10/15 18:31:21;;;;;;;15.00;4.70;;;;;;;;;;4918951;29;20059;-64
2023/10/15 18:33:48;;;;;;;9.77;4.32;;;;;;;;;;4920403;29;20051;-67
2023/10/15 18:36:16;;;;;;;13.55;4.65;;;;;;;;;;4922329;29;20196;-67
2023/10/15 18:38:42;;;;;;;12.88;4.90;;;;;;;;;;4924740;29;20064;-70
2023/10/15 18:41:10;;;;;;;11.43;5.18;;;;;;;;;;4906504;29;20055;-69
2023/10/15 18:43:37;;;;;;;15.45;4.97;;;;;;;;;;4925268;29;20170;-66
2023/10/15 18:46:06;;;;;;;13.02;5.03;;;;;;;;;;4917698;29;20079;-67
2023/10/15 18:48:32;;;;;;;11.82;4.93;;;;;;;;;;4912689;29;23214;-67
2023/10/15 18:51:02;;;;;;;19.90;5.18;;;;;;;;;;4902738;29;20594;-66
2023/10/15 18:53:31;;;;;;;15.32;4.70;;;;;;;;;;4917809;29;20118;-67
2023/10/15 18:55:57;;;;;;;11.07;4.60;;;;;;;;;;4916260;29;20063;-64
2023/10/15 18:58:23;;;;;;;13.68;5.45;;;;;;;;;;4906908;29;20122;-68
2023/10/15 19:00:51;;;;;;;10.77;4.65;;;;;;;;;;4900781;29;20641;-64
2023/10/15 19:03:16;;;;;;;12.45;4.90;;;;;;;;;;4913405;29;20056;-67
2023/10/15 19:05:42;;;;;;;16.92;5.22;;;;;;;;;;4919507;29;20540;-66
2023/10/15 19:08:10;;;;;;;11.32;4.68;;;;;;;;;;4916396;29;20055;-65
2023/10/15 19:10:36;;;;;;;9.70;5.22;;;;;;;;;;4912933;29;20052;-68
2023/10/15 19:13:02;;;;;;;18.58;5.28;;;;;;;;;;4917859;29;20060;-66
2023/10/15 19:15:30;;;;;;;11.23;4.70;;;;;;;;;;4912058;29;20063;-65
2023/10/15 19:17:56;;;;;;;12.52;5.30;;;;;;;;;;4916222;29;20055;-64
2023/10/15 19:20:22;;;;;;;13.75;5.68;;;;;;;;;;4918649;29;20075;-66
2023/10/15 19:22:50;;;;;;;11.43;4.97;;;;;;;;;;4918792;29;20090;-64
2023/10/15 19:25:18;;;;;;;11.88;5.25;;;;;;;;;;4915868;29;20425;-67
2023/10/15 19:27:44;;;;;;;11.15;4.63;;;;;;;;;;4919390;29;20051;-70
2023/10/15 19:30:12;;;;;;;12.27;4.95;;;;;;;;;;4917259;29;20055;-62
2023/10/15 19:32:38;;;;;;;9.75;5.15;;;;;;;;;;4916499;29;20058;-69
2023/10/15 19:35:04;;;;;;;18.45;4.82;;;;;;;;;;4917044;29;20081;-65
2023/10/15 19:37:31;;;;;;;10.05;5.10;;;;;;;;;;4916735;29;20567;-64
2023/10/15 19:39:57;;;;;;;11.13;4.72;;;;;;;;;;4920043;29;20070;-63
2023/10/15 19:42:23;;;;;;;11.15;4.93;;;;;;;;;;4916560;29;20047;-67
2023/10/15 19:44:50;;;;;;;13.27;4.97;;;;;;;;;;4919814;29;20051;-64
2023/10/15 19:47:16;;;;;;;14.07;5.18;;;;;;;;;;4897310;29;20062;-67
2023/10/15 19:49:42;;;;;;;12.75;4.82;;;;;;;;;;4897503;29;20075;-63
2023/10/15 19:52:09;;;;;;;13.43;4.93;;;;;;;;;;4916697;29;20055;-64
2023/10/15 19:54:56;;;;;;;13.65;5.18;;;;;;;;;;4923503;29;20098;-64
2023/10/15 19:57:22;;;;;;;11.77;4.97;;;;;;;;;;4922452;29;20056;-63
2023/10/15 19:59:48;;;;;;;14.00;4.82;;;;;;;;;;4922977;29;20055;-65
2023/10/15 20:02:14;;;;;;;13.35;5.78;;;;;;;;;;4917733;29;20435;-65
2023/10/15 20:04:41;;;;;;;12.85;6.35;;;;;;;;;;4916345;29;20052;-67
2023/10/15 20:07:07;;;;;;;16.45;5.40;;;;;;;;;;4913720;29;20580;-65
2023/10/15 20:09:36;;;;;;;13.68;5.00;;;;;;;;;;4917383;29;20645;-62
2023/10/15 20:12:07;;;;;;;14.65;5.15;;;;;;;;;;4924300;29;20138;-64
2023/10/15 20:14:35;;;;;;;10.57;4.43;;;;;;;;;;4924717;29;20047;-64
2023/10/15 20:17:40;;;;;;;13.85;5.20;;;;;;;;;;4897990;29;20463;-64
2023/10/15 20:21:20;;;;;;;10.80;4.72;;;;;;;;;;4921488;29;20488;-63
2023/10/15 20:25:07;;;;;;;15.35;5.18;;;;;;;;;;4919632;29;20051;-65
2023/10/15 20:28:41;;;;;;;12.60;4.82;;;;;;;;;;4921606;29;20354;-64
2023/10/15 20:32:23;;;;;;;12.50;4.70;;;;;;;;;;4921290;29;20535;-63
2023/10/15 20:36:04;;;;;;;13.52;4.95;;;;;;;;;;4927081;29;20119;-64
2023/10/15 20:39:47;;;;;;;10.98;4.25;;;;;;;;;;4928236;29;20063;-65
2023/10/15 20:43:24;;;;;;;12.77;4.75;;;;;;;;;;4912925;29;20138;-64
2023/10/15 20:47:05;;;;;;;13.52;4.35;;;;;;;;;;4922662;29;20071;-63
2023/10/15 20:50:46;;;;;;;12.63;5.20;;;;;;;;;;4920036;29;20570;-63
2023/10/15 20:54:26;;;;;;;10.25;4.38;;;;;;;;;;4916030;29;20109;-70
2023/10/15 20:57:26;;;;;;;11.30;4.30;;;;;;;;;;4918155;29;20043;-64
2023/10/15 20:59:53;;;;;;;14.48;4.50;;;;;;;;;;4918727;29;20055;-67
2023/10/15 21:02:59;;;;;;;10.45;4.63;;;;;;;;;;4920538;29;20142;-66
2023/10/15 21:06:43;;;;;;;15.00;4.95;;;;;;;;;;4924755;29;20047;-64
2023/10/15 21:10:25;;;;;;;12.15;4.95;;;;;;;;;;4920053;29;20079;-63
2023/10/15 21:13:25;;;;;;;12.82;4.38;;;;;;;;;;4923352;29;20141;-65
2023/10/15 21:15:52;;;;;;;12.15;4.78;;;;;;;;;;4925596;29;20063;-70
2023/10/15 21:18:17;;;;;;;13.60;4.22;;;;;;;;;;4928246;29;20467;-65
2023/10/15 21:20:47;;;;;;;9.07;4.50;;;;;;;;;;4923425;29;20052;-66
2023/10/15 21:23:13;;;;;;;11.13;4.50;;;;;;;;;;4918337;29;20059;-66
2023/10/15 21:25:40;;;;;;;15.98;4.32;;;;;;;;;;4929330;29;20251;-65
2023/10/15 21:28:06;;;;;;;12.02;4.47;;;;;;;;;;4936965;29;20074;-64
2023/10/15 21:30:33;;;;;;;14.55;4.75;;;;;;;;;;4923156;29;20051;-66
2023/10/15 21:33:02;;;;;;;12.70;4.68;;;;;;;;;;4927289;29;20059;-64
2023/10/15 21:35:34;;;;;;;11.52;5.10;;;;;;;;;;4932224;29;20068;-63
2023/10/15 21:37:59;;;;;;;10.25;4.75;;;;;;;;;;4931412;29;20080;-64
2023/10/15 21:40:25;;;;;;;15.65;4.88;;;;;;;;;;4931703;29;20039;-62
2023/10/15 21:42:52;;;;;;;12.52;4.65;;;;;;;;;;4931296;29;20355;-65
2023/10/15 21:45:19;;;;;;;11.75;4.88;;;;;;;;;;4918259;29;20047;-65
2023/10/15 21:47:45;;;;;;;13.25;4.65;;;;;;;;;;4936298;29;20087;-64
2023/10/15 21:50:16;;;;;;;11.02;4.60;;;;;;;;;;4933595;29;20119;-64
2023/10/15 21:52:41;;;;;;;13.27;4.55;;;;;;;;;;4927971;29;20042;-62
2023/10/15 21:55:10;;;;;;;13.18;4.80;;;;;;;;;;4916223;29;20047;-64
2023/10/15 21:57:36;;;;;;;10.85;5.00;;;;;;;;;;4932246;29;20076;-65
2023/10/15 22:00:04;;;;;;;10.35;4.95;;;;;;;;;;4927101;29;20532;-63
2023/10/15 22:02:31;;;;;;;13.80;5.13;;;;;;;;;;4914668;29;20067;-64
2023/10/15 22:05:02;;;;;;;10.55;5.13;;;;;;;;;;4931539;29;20067;-65
2023/10/15 22:07:31;;;;;;;13.30;5.85;;;;;;;;;;4930968;29;20047;-65
2023/10/15 22:09:57;;;;;;;12.45;5.28;;;;;;;;;;4929195;29;20413;-64
2023/10/15 22:12:25;;;;;;;12.98;5.18;;;;;;;;;;4927439;29;20055;-61
2023/10/15 22:15:32;;;;;;;9.68;4.80;;;;;;;;;;4933016;29;20289;-64
2023/10/15 22:19:13;;;;;;;13.48;5.07;;;;;;;;;;4931579;29;20052;-64
2023/10/15 22:22:55;;;;;;;9.43;4.72;;;;;;;;;;4931466;29;20043;-63
2023/10/15 22:26:32;;;;;;;12.63;4.85;;;;;;;;;;4925289;29;20054;-61
2023/10/15 22:30:18;;;;;;;13.70;5.40;;;;;;;;;;4924226;29;20075;-67
2023/10/15 22:33:53;;;;;;;13.32;5.10;;;;;;;;;;4927195;29;20104;-63
2023/10/15 22:37:33;;;;;;;11.82;4.45;;;;;;;;;;4927163;29;20085;-61
2023/10/15 22:41:14;;;;;;;11.75;5.38;;;;;;;;;;4931676;29;21117;-63
2023/10/15 22:44:54;;;;;;;13.40;5.32;;;;;;;;;;4929381;29;20043;-62
2023/10/15 22:48:34;;;;;;;12.82;4.57;;;;;;;;;;4929334;29;20047;-64
2023/10/15 22:52:15;;;;;;;12.60;4.43;;;;;;;;;;4935974;29;20528;-64
2023/10/15 22:55:58;;;;;;;12.43;4.93;;;;;;;;;;4926269;29;20126;-64
2023/10/15 22:59:35;;;;;;;11.80;5.10;;;;;;;;;;4930487;29;20063;-62
2023/10/15 23:03:16;;;;;;;16.20;5.10;;;;;;;;;;4931130;29;20035;-62
2023/10/15 23:06:56;;;;;;;13.10;4.38;;;;;;;;;;4931861;29;20428;-63
2023/10/15 23:10:37;;;;;;;14.05;4.13;;;;;;;;;;4923536;29;20155;-63
2023/10/15 23:14:17;;;;;;;14.20;4.25;;;;;;;;;;4924994;29;20055;-63
2023/10/15 23:18:06;;;;;;;10.95;4.35;;;;;;;;;;4928975;29;20043;-62
2023/10/15 23:21:45;;;;;;;10.43;4.30;;;;;;;;;;4929829;29;20128;-63
2023/10/15 23:25:19;;;;;;;13.10;4.57;;;;;;;;;;4929289;29;20127;-63
2023/10/15 23:29:03;;;;;;;12.23;4.88;;;;;;;;;;4923798;29;20051;-62
2023/10/15 23:32:40;;;;;;;10.25;4.00;;;;;;;;;;4926005;29;20054;-61
2023/10/15 23:36:24;;;;;;;12.35;4.15;;;;;;;;;;4923074;29;20138;-61
2023/10/15 23:40:04;;;;;;;17.73;4.53;;;;;;;;;;4924079;29;20135;-62
2023/10/15 23:43:45;;;;;;;10.73;3.90;;;;;;;;;;4923529;29;20095;-62
2023/10/15 23:47:23;;;;;;;11.18;3.83;;;;;;;;;;4921519;29;20048;-62
2023/10/15 23:51:14;;;;;;;10.32;4.13;;;;;;;;;;4925321;29;20106;-61
2023/10/15 23:54:54;;;;;;;10.57;4.47;;;;;;;;;;4927014;29;20058;-64
2023/10/15 23:58:34;;;;;;;9.88;4.00;;;;;;;;;;4924705;29;20139;-61
